createdAt,value
2017-10-24T00:00:25.053Z,6.43
2017-10-24T00:02:51.337Z,5.00
2017-10-24T00:05:17.613Z,6.12
2017-10-24T00:07:43.909Z,6.18
2017-10-24T00:10:10.974Z,6.03
2017-10-24T00:12:37.275Z,6.32
2017-10-24T00:15:03.587Z,5.68
2017-10-24T00:17:29.898Z,7.22
2017-10-24T00:19:56.214Z,6.20
2017-10-24T00:22:22.517Z,5.35
2017-10-24T00:24:48.793Z,5.70
2017-10-24T00:27:15.086Z,5.78
2017-10-24T00:29:41.384Z,5.90
2017-10-24T00:32:08.428Z,5.75
2017-10-24T00:34:34.770Z,6.82
2017-10-24T00:37:01.090Z,6.10
2017-10-24T00:39:28.127Z,5.03
2017-10-24T00:41:55.195Z,5.50
2017-10-24T00:44:21.521Z,6.07
2017-10-24T00:46:47.832Z,6.12
2017-10-24T00:49:14.891Z,5.85
2017-10-24T00:51:41.200Z,6.53
2017-10-24T00:54:08.318Z,6.07
2017-10-24T00:56:36.116Z,5.70
2017-10-24T00:59:03.198Z,4.95
2017-10-24T01:01:29.519Z,6.00
2017-10-24T01:03:56.584Z,5.72
2017-10-24T01:06:23.272Z,5.37
2017-10-24T01:08:49.581Z,5.25
2017-10-24T01:11:15.900Z,5.95
2017-10-24T01:13:42.222Z,5.10
2017-10-24T01:16:08.540Z,5.50
2017-10-24T01:18:34.909Z,4.78
2017-10-24T01:21:01.273Z,4.97
2017-10-24T01:23:28.503Z,5.18
2017-10-24T01:25:54.866Z,5.55
2017-10-24T01:28:21.178Z,4.80
2017-10-24T01:30:47.517Z,4.70
2017-10-24T01:33:13.874Z,4.93
2017-10-24T01:35:40.256Z,5.75
2017-10-24T01:38:06.654Z,4.72
2017-10-24T01:40:33.028Z,4.97
2017-10-24T01:42:59.393Z,4.35
2017-10-24T01:45:26.039Z,5.30
2017-10-24T01:47:52.383Z,4.40
2017-10-24T01:50:19.481Z,4.80
2017-10-24T01:52:45.831Z,5.15
2017-10-24T01:55:12.232Z,4.62
2017-10-24T01:57:38.591Z,4.75
2017-10-24T02:00:04.915Z,4.75
2017-10-24T02:02:31.300Z,5.40
2017-10-24T02:04:57.646Z,5.15
2017-10-24T02:07:24.013Z,4.80
2017-10-24T02:09:50.327Z,4.07
2017-10-24T02:12:16.688Z,5.10
2017-10-24T02:14:43.028Z,4.97
2017-10-24T02:17:10.100Z,5.25
2017-10-24T02:19:36.418Z,5.65
2017-10-24T02:22:03.503Z,4.93
2017-10-24T02:24:30.579Z,4.70
2017-10-24T02:26:56.879Z,4.68
2017-10-24T02:29:23.441Z,5.40
2017-10-24T02:31:49.740Z,4.93
2017-10-24T02:34:16.072Z,5.40
2017-10-24T02:36:42.372Z,4.78
2017-10-24T02:39:08.679Z,5.53
2017-10-24T02:41:35.771Z,4.35
2017-10-24T02:44:02.090Z,4.87
2017-10-24T02:46:28.432Z,4.50
2017-10-24T02:48:54.727Z,5.47
2017-10-24T02:51:21.102Z,4.25
2017-10-24T02:53:47.468Z,5.07
2017-10-24T02:56:14.486Z,4.75
2017-10-24T02:58:40.788Z,5.62
2017-10-24T03:01:07.099Z,4.72
2017-10-24T03:03:33.434Z,5.30
2017-10-24T03:05:59.747Z,5.20
2017-10-24T03:08:26.074Z,5.43
2017-10-24T03:10:52.395Z,4.40
2017-10-24T03:13:19.466Z,4.97
2017-10-24T03:15:45.779Z,5.35
2017-10-24T03:18:12.070Z,4.90
2017-10-24T03:20:38.426Z,4.75
2017-10-24T03:23:05.501Z,5.32
2017-10-24T03:25:31.817Z,4.90
2017-10-24T03:27:58.125Z,4.28
2017-10-24T03:30:25.181Z,4.57
2017-10-24T03:32:51.463Z,4.87
2017-10-24T03:35:17.805Z,5.05
2017-10-24T03:37:44.093Z,4.35
2017-10-24T03:40:10.397Z,4.93
2017-10-24T03:42:37.476Z,4.10
2017-10-24T03:45:03.801Z,4.85
2017-10-24T03:47:30.092Z,4.10
2017-10-24T03:49:57.124Z,4.40
2017-10-24T03:52:23.427Z,4.72
2017-10-24T03:54:49.722Z,4.65
2017-10-24T03:57:16.055Z,4.50
2017-10-24T03:59:42.364Z,4.20
2017-10-24T04:02:08.689Z,4.32
2017-10-24T04:04:35.052Z,3.97
2017-10-24T04:07:02.634Z,3.40
2017-10-24T04:09:28.977Z,3.45
2017-10-24T04:11:55.291Z,3.35
2017-10-24T04:14:21.610Z,3.90
2017-10-24T04:16:47.955Z,3.50
2017-10-24T04:19:14.247Z,3.58
2017-10-24T04:21:40.558Z,3.92
2017-10-24T04:24:06.891Z,3.55
2017-10-24T04:26:33.192Z,3.55
2017-10-24T04:29:00.266Z,3.35
2017-10-24T04:31:26.616Z,3.50
2017-10-24T04:33:52.932Z,3.60
2017-10-24T04:36:19.264Z,3.05
2017-10-24T04:38:45.578Z,2.90
2017-10-24T04:41:11.867Z,3.62
2017-10-24T04:43:38.186Z,3.03
2017-10-24T04:46:04.506Z,2.90
2017-10-24T04:48:30.790Z,2.58
2017-10-24T04:50:57.105Z,2.85
2017-10-24T04:53:23.398Z,3.30
2017-10-24T04:55:49.699Z,2.85
2017-10-24T04:58:15.989Z,2.55
2017-10-24T05:00:42.307Z,3.50
2017-10-24T05:03:09.357Z,3.10
2017-10-24T05:05:36.391Z,2.58
2017-10-24T05:08:03.430Z,2.55
2017-10-24T05:10:30.482Z,2.20
2017-10-24T05:12:57.538Z,2.10
2017-10-24T05:15:24.569Z,2.60
2017-10-24T05:17:51.595Z,2.40
2017-10-24T05:20:17.955Z,2.60
2017-10-24T05:22:45.023Z,2.00
2017-10-24T05:25:11.328Z,3.15
2017-10-24T05:27:38.361Z,2.70
2017-10-24T05:30:05.442Z,3.28
2017-10-24T05:32:31.730Z,2.87
2017-10-24T05:34:58.041Z,2.53
2017-10-24T05:37:24.336Z,3.25
2017-10-24T05:39:50.626Z,2.20
2017-10-24T05:42:17.705Z,2.40
2017-10-24T05:44:44.021Z,2.05
2017-10-24T05:47:10.313Z,1.85
2017-10-24T05:49:36.635Z,2.20
2017-10-24T05:52:02.967Z,1.85
2017-10-24T05:54:29.412Z,2.10
2017-10-24T05:56:56.468Z,2.10
2017-10-24T05:59:22.749Z,2.40
2017-10-24T06:01:49.042Z,2.03
2017-10-24T06:04:15.352Z,2.10
2017-10-24T06:06:42.377Z,2.42
2017-10-24T06:09:08.697Z,2.22
2017-10-24T06:11:34.975Z,2.72
2017-10-24T06:14:01.262Z,2.67
2017-10-24T06:16:27.543Z,2.60
2017-10-24T06:18:53.867Z,2.37
2017-10-24T06:21:20.145Z,2.60
2017-10-24T06:23:46.459Z,2.15
2017-10-24T06:26:12.781Z,2.15
2017-10-24T06:28:39.066Z,2.22
2017-10-24T06:31:05.372Z,2.42
2017-10-24T06:33:32.427Z,2.20
2017-10-24T06:35:59.497Z,2.00
2017-10-24T06:38:25.799Z,2.60
2017-10-24T06:40:52.851Z,2.60
2017-10-24T06:43:19.180Z,2.30
2017-10-24T06:45:46.208Z,2.35
2017-10-24T06:48:12.502Z,2.40
2017-10-24T06:50:38.797Z,2.87
2017-10-24T06:53:05.090Z,2.15
2017-10-24T06:55:31.487Z,2.15
2017-10-24T06:57:57.889Z,2.10
2017-10-24T07:00:24.181Z,2.55
2017-10-24T07:02:50.494Z,2.03
2017-10-24T07:05:16.831Z,1.95
2017-10-24T07:07:43.160Z,2.75
2017-10-24T07:10:09.495Z,2.37
2017-10-24T07:12:35.884Z,2.20
2017-10-24T07:15:02.249Z,2.17
2017-10-24T07:17:28.553Z,1.85
2017-10-24T07:19:54.843Z,2.42
2017-10-24T07:22:21.169Z,2.00
2017-10-24T07:24:47.465Z,2.42
2017-10-24T07:27:13.801Z,1.77
2017-10-24T07:29:40.818Z,2.00
2017-10-24T07:32:07.151Z,2.12
2017-10-24T07:34:33.429Z,1.60
2017-10-24T07:36:59.729Z,1.65
2017-10-24T07:39:26.831Z,2.08
2017-10-24T07:41:53.446Z,1.80
2017-10-24T07:44:19.773Z,2.00
2017-10-24T07:46:46.051Z,1.40
2017-10-24T07:49:12.395Z,2.30
2017-10-24T07:51:39.446Z,5.93
2017-10-24T07:54:06.608Z,6.28
2017-10-24T07:56:32.904Z,2.78
2017-10-24T07:58:59.235Z,2.75
2017-10-24T08:01:25.564Z,1.70
2017-10-24T08:03:51.874Z,1.90
2017-10-24T08:06:18.191Z,1.70
2017-10-24T08:08:44.497Z,1.20
2017-10-24T08:11:11.551Z,1.20
2017-10-24T08:13:37.855Z,1.43
2017-10-24T08:16:04.175Z,1.40
2017-10-24T08:18:31.213Z,1.40
2017-10-24T08:20:58.284Z,1.30
2017-10-24T08:23:24.571Z,1.53
2017-10-24T08:25:50.919Z,1.53
2017-10-24T08:28:17.951Z,1.50
2017-10-24T08:30:44.284Z,1.33
2017-10-24T08:33:10.547Z,1.07
2017-10-24T08:35:36.870Z,1.23
2017-10-24T08:38:03.143Z,1.10
2017-10-24T08:40:29.433Z,0.80
2017-10-24T08:42:55.743Z,1.00
2017-10-24T08:45:22.771Z,1.20
2017-10-24T08:47:49.109Z,1.10
2017-10-24T08:50:16.178Z,1.10
2017-10-24T08:52:42.473Z,1.63
2017-10-24T08:55:09.639Z,0.90
2017-10-24T08:57:36.707Z,1.10
2017-10-24T09:00:03.103Z,0.97
2017-10-24T09:02:30.207Z,1.17
2017-10-24T09:04:56.533Z,1.10
2017-10-24T09:07:22.854Z,1.00
2017-10-24T09:09:49.142Z,1.20
2017-10-24T09:12:15.463Z,1.43
2017-10-24T09:14:42.534Z,1.43
2017-10-24T09:17:33.697Z,1.10
2017-10-24T09:20:01.313Z,1.47
2017-10-24T09:22:27.592Z,1.53
2017-10-24T09:24:53.905Z,1.20
2017-10-24T09:27:20.193Z,1.70
2017-10-24T09:29:46.489Z,1.30
2017-10-24T09:32:12.821Z,1.10
2017-10-24T09:34:39.918Z,1.30
2017-10-24T09:37:06.293Z,1.40
2017-10-24T09:39:33.333Z,1.20
2017-10-24T09:41:59.690Z,1.20
2017-10-24T09:44:26.039Z,1.50
2017-10-24T09:46:52.385Z,1.33
2017-10-24T09:49:18.737Z,0.97
2017-10-24T09:51:45.062Z,1.20
2017-10-24T09:54:11.525Z,1.30
2017-10-24T09:56:46.377Z,1.20
2017-10-24T09:59:31.387Z,1.27
2017-10-24T10:01:57.684Z,1.50
2017-10-24T10:04:24.044Z,1.30
2017-10-24T10:06:58.389Z,1.07
2017-10-24T10:09:25.441Z,1.17
2017-10-24T10:11:52.471Z,1.00
2017-10-24T10:14:18.797Z,1.20
2017-10-24T10:16:45.096Z,1.70
2017-10-24T10:19:11.404Z,1.50
2017-10-24T10:21:37.752Z,0.90
2017-10-24T10:24:04.052Z,1.10
2017-10-24T10:26:30.386Z,1.07
2017-10-24T10:28:56.710Z,1.40
2017-10-24T10:31:23.072Z,1.20
2017-10-24T10:33:49.415Z,1.10
2017-10-24T10:36:15.752Z,1.00
2017-10-24T10:38:42.338Z,1.40
2017-10-24T10:41:08.634Z,1.50
2017-10-24T10:43:35.674Z,1.10
2017-10-24T10:46:02.763Z,1.40
2017-10-24T10:48:29.061Z,1.30
2017-10-24T10:50:55.393Z,1.20
2017-10-24T10:53:22.423Z,1.20
2017-10-24T10:55:48.721Z,1.00
2017-10-24T10:58:14.990Z,1.13
2017-10-24T11:00:42.063Z,1.03
2017-10-24T11:03:08.368Z,1.40
2017-10-24T11:05:34.679Z,1.17
2017-10-24T11:08:00.971Z,1.33
2017-10-24T11:10:32.179Z,0.90
2017-10-24T11:12:59.275Z,0.97
2017-10-24T11:15:25.574Z,1.60
2017-10-24T11:17:51.855Z,1.00
2017-10-24T11:20:18.188Z,1.07
2017-10-24T11:22:45.245Z,1.30
2017-10-24T11:25:12.255Z,1.47
2017-10-24T11:27:38.597Z,1.10
2017-10-24T11:30:04.985Z,1.50
2017-10-24T11:32:31.270Z,1.30
2017-10-24T11:34:58.302Z,2.10
2017-10-24T11:37:24.597Z,1.20
2017-10-24T11:39:50.901Z,1.53
2017-10-24T11:42:17.224Z,1.50
2017-10-24T11:44:43.521Z,1.00
2017-10-24T11:47:09.848Z,1.30
2017-10-24T11:49:36.147Z,1.80
2017-10-24T11:52:02.429Z,1.83
2017-10-24T11:54:28.823Z,2.10
2017-10-24T11:56:55.122Z,1.70
2017-10-24T11:59:21.418Z,2.10
2017-10-24T12:01:48.455Z,1.77
2017-10-24T12:04:14.753Z,1.50
2017-10-24T12:06:41.053Z,1.50
2017-10-24T12:09:07.370Z,1.63
2017-10-24T12:11:33.671Z,1.87
2017-10-24T12:13:59.966Z,1.80
2017-10-24T12:16:26.267Z,1.40
2017-10-24T12:18:52.588Z,1.60
2017-10-24T12:21:19.167Z,1.60
2017-10-24T12:23:45.484Z,1.40
2017-10-24T12:26:11.781Z,1.40
2017-10-24T12:28:38.073Z,1.50
2017-10-24T12:31:04.399Z,1.63
2017-10-24T12:33:31.466Z,1.37
2017-10-24T12:35:57.779Z,1.77
2017-10-24T12:38:24.091Z,1.67
2017-10-24T12:40:51.183Z,2.07
2017-10-24T12:43:17.512Z,1.67
2017-10-24T12:45:43.869Z,1.77
2017-10-24T12:48:10.207Z,1.93
2017-10-24T12:50:39.083Z,1.80
2017-10-24T12:53:05.399Z,1.70
2017-10-24T12:55:31.762Z,2.60
2017-10-24T12:58:08.029Z,1.90
2017-10-24T13:00:48.307Z,2.47
2017-10-24T13:03:14.765Z,1.57
2017-10-24T13:05:41.097Z,1.90
2017-10-24T13:08:10.960Z,1.90
2017-10-24T13:10:38.064Z,1.97
2017-10-24T13:13:04.398Z,1.90
2017-10-24T13:15:30.781Z,1.63
2017-10-24T13:17:57.815Z,1.80
2017-10-24T13:20:24.930Z,1.70
2017-10-24T13:22:51.239Z,1.77
2017-10-24T13:25:17.795Z,1.80
2017-10-24T13:27:44.095Z,1.90
2017-10-24T13:30:10.412Z,3.00
2017-10-24T13:32:36.788Z,2.60
2017-10-24T13:35:03.113Z,2.47
2017-10-24T13:37:29.435Z,2.10
2017-10-24T13:39:55.722Z,1.80
2017-10-24T13:42:22.009Z,3.33
2017-10-24T13:44:48.305Z,2.40
2017-10-24T13:47:14.601Z,2.30
2017-10-24T13:49:40.917Z,2.40
2017-10-24T13:52:07.216Z,2.60
2017-10-24T13:54:33.556Z,2.33
2017-10-24T13:56:59.854Z,2.40
2017-10-24T13:59:26.561Z,2.10
2017-10-24T14:01:52.929Z,1.60
2017-10-24T14:04:25.284Z,2.40
2017-10-24T14:06:57.634Z,2.50
2017-10-24T14:09:29.897Z,2.70
2017-10-24T14:11:56.211Z,2.27
2017-10-24T14:14:23.280Z,2.17
2017-10-24T14:16:49.606Z,2.07
2017-10-24T14:19:15.967Z,2.17
2017-10-24T14:21:42.274Z,2.40
2017-10-24T14:24:08.584Z,2.97
2017-10-24T14:26:34.874Z,2.73
2017-10-24T14:29:01.209Z,2.40
2017-10-24T14:31:27.507Z,2.73
2017-10-24T14:33:53.874Z,2.67
2017-10-24T14:36:20.196Z,2.40
2017-10-24T14:38:46.495Z,2.73
2017-10-24T14:41:12.806Z,2.67
2017-10-24T14:43:39.144Z,2.40
2017-10-24T14:46:05.445Z,2.30
2017-10-24T14:48:31.811Z,2.20
2017-10-24T14:50:58.150Z,2.00
2017-10-24T14:53:24.429Z,2.07
2017-10-24T14:55:50.747Z,2.23
2017-10-24T14:58:17.772Z,2.43
2017-10-24T15:00:44.847Z,2.23
2017-10-24T15:03:11.161Z,1.87
2017-10-24T15:05:37.511Z,2.30
2017-10-24T15:08:03.829Z,2.60
2017-10-24T15:10:30.179Z,2.33
2017-10-24T15:12:56.472Z,2.07
2017-10-24T15:15:23.549Z,1.87
2017-10-24T15:17:49.849Z,2.00
2017-10-24T15:20:16.960Z,1.97
2017-10-24T15:22:43.376Z,2.00
2017-10-24T15:25:09.703Z,2.17
2017-10-24T15:27:36.014Z,3.00
2017-10-24T15:30:02.371Z,2.57
2017-10-24T15:32:28.679Z,3.10
2017-10-24T15:34:55.017Z,2.97
2017-10-24T15:37:21.326Z,2.40
2017-10-24T15:39:47.908Z,1.97
2017-10-24T15:42:14.226Z,2.07
2017-10-24T15:44:40.545Z,2.83
2017-10-24T15:47:06.854Z,2.50
2017-10-24T15:49:33.917Z,2.20
2017-10-24T15:52:00.267Z,2.50
2017-10-24T15:54:26.582Z,2.60
2017-10-24T15:56:52.931Z,2.43
2017-10-24T15:59:19.977Z,2.90
2017-10-24T16:01:46.328Z,2.97
2017-10-24T16:04:12.620Z,2.93
2017-10-24T16:06:38.914Z,3.17
2017-10-24T16:09:05.239Z,2.50
2017-10-24T16:11:31.581Z,2.90
2017-10-24T16:13:57.905Z,2.27
2017-10-24T16:16:24.215Z,2.63
2017-10-24T16:18:50.513Z,2.60
2017-10-24T16:21:17.596Z,2.10
2017-10-24T16:23:43.938Z,2.90
2017-10-24T16:26:10.215Z,3.20
2017-10-24T16:28:37.277Z,1.97
2017-10-24T16:31:04.594Z,2.17
2017-10-24T16:33:31.029Z,2.47
2017-10-24T16:35:57.321Z,1.70
2017-10-24T16:38:23.668Z,2.30
2017-10-24T16:40:49.898Z,2.37
2017-10-24T16:43:16.188Z,2.00
2017-10-24T16:45:42.510Z,2.60
2017-10-24T16:48:08.804Z,3.63
2017-10-24T16:50:35.862Z,2.70
2017-10-24T16:53:02.129Z,3.30
2017-10-24T16:55:28.450Z,2.57
2017-10-24T16:57:54.750Z,3.60
2017-10-24T17:00:21.812Z,4.33
2017-10-24T17:02:48.115Z,5.10
2017-10-24T17:05:14.422Z,4.80
2017-10-24T17:07:40.803Z,5.70
2017-10-24T17:10:07.101Z,6.73
2017-10-24T17:12:33.462Z,5.80
2017-10-24T17:14:59.838Z,8.17
2017-10-24T17:17:26.137Z,7.13
2017-10-24T17:19:52.432Z,7.77
2017-10-24T17:22:19.463Z,6.83
2017-10-24T17:24:46.529Z,6.93
2017-10-24T17:27:12.867Z,6.13
2017-10-24T17:29:39.157Z,6.50
2017-10-24T17:32:05.661Z,7.27
2017-10-24T17:34:32.036Z,7.33
2017-10-24T17:36:59.121Z,7.07
2017-10-24T17:39:25.498Z,7.43
2017-10-24T17:41:51.853Z,7.97
2017-10-24T17:44:18.147Z,7.20
2017-10-24T17:46:44.478Z,7.77
2017-10-24T17:49:10.865Z,7.20
2017-10-24T17:51:37.190Z,5.80
2017-10-24T17:54:04.225Z,5.37
2017-10-24T17:56:30.582Z,4.97
2017-10-24T17:58:57.164Z,4.97
2017-10-24T18:01:23.779Z,5.17
2017-10-24T18:03:50.135Z,4.87
2017-10-24T18:06:17.250Z,5.23
2017-10-24T18:08:43.594Z,4.90
2017-10-24T18:11:10.011Z,5.47
2017-10-24T18:13:36.384Z,5.73
2017-10-24T18:16:02.756Z,5.70
2017-10-24T18:18:29.084Z,5.43
2017-10-24T18:20:55.469Z,5.80
2017-10-24T18:23:21.829Z,4.83
2017-10-24T18:25:48.321Z,4.80
2017-10-24T18:28:14.725Z,5.13
2017-10-24T18:30:41.034Z,5.20
2017-10-24T18:33:07.444Z,5.17
2017-10-24T18:35:33.824Z,5.20
2017-10-24T18:38:00.280Z,5.03
2017-10-24T18:40:27.332Z,5.03
2017-10-24T18:42:53.701Z,4.83
2017-10-24T18:45:20.050Z,5.10
2017-10-24T18:47:46.456Z,5.53
2017-10-24T18:50:12.816Z,6.53
2017-10-24T18:52:39.198Z,5.20
2017-10-24T18:55:05.619Z,6.10
2017-10-24T18:57:32.028Z,5.90
2017-10-24T18:59:58.497Z,5.90
2017-10-24T19:02:24.925Z,5.83
2017-10-24T19:04:51.336Z,6.63
2017-10-24T19:07:17.781Z,8.40
2017-10-24T19:09:44.114Z,8.00
2017-10-24T19:12:10.606Z,8.50
2017-10-24T19:14:37.748Z,8.97
2017-10-24T19:17:05.195Z,9.23
2017-10-24T19:19:31.605Z,10.50
2017-10-24T19:21:57.985Z,8.30
2017-10-24T19:24:24.611Z,8.97
2017-10-24T19:26:51.778Z,8.10
2017-10-24T19:29:18.196Z,8.77
2017-10-24T19:31:45.319Z,8.60
2017-10-24T19:34:11.724Z,8.90
2017-10-24T19:36:38.163Z,8.53
2017-10-24T19:39:04.570Z,8.10
2017-10-24T19:41:30.969Z,8.30
2017-10-24T19:43:58.101Z,8.70
2017-10-24T19:46:25.192Z,7.33
2017-10-24T19:48:51.581Z,8.60
2017-10-24T19:51:18.730Z,8.00
2017-10-24T19:53:45.814Z,8.27
2017-10-24T19:56:12.931Z,6.80
2017-10-24T19:58:40.013Z,8.00
2017-10-24T20:01:06.437Z,7.10
2017-10-24T20:03:32.782Z,7.87
2017-10-24T20:05:59.089Z,8.50
2017-10-24T20:08:25.414Z,8.50
2017-10-24T20:10:51.727Z,8.97
2017-10-24T20:13:19.100Z,9.23
2017-10-24T20:15:45.441Z,9.87
2017-10-24T20:18:11.761Z,9.37
2017-10-24T20:20:38.139Z,7.30
2017-10-24T20:23:04.442Z,5.97
2017-10-24T20:25:30.738Z,5.50
2017-10-24T20:27:57.040Z,4.50
2017-10-24T20:30:23.428Z,4.83
2017-10-24T20:32:49.767Z,5.70
2017-10-24T20:35:16.093Z,4.93
2017-10-24T20:37:42.445Z,5.00
2017-10-24T20:40:08.760Z,4.90
2017-10-24T20:42:35.091Z,4.95
2017-10-24T20:45:01.406Z,4.90
2017-10-24T20:47:27.991Z,5.90
2017-10-24T20:49:55.042Z,5.40
2017-10-24T20:52:22.081Z,4.77
2017-10-24T20:54:49.125Z,5.27
2017-10-24T20:57:16.148Z,4.97
2017-10-24T20:59:43.239Z,4.50
2017-10-24T21:02:09.530Z,3.63
2017-10-24T21:04:35.895Z,3.67
2017-10-24T21:07:02.300Z,4.00
2017-10-24T21:09:29.355Z,3.50
2017-10-24T21:11:56.679Z,3.27
2017-10-24T21:14:22.973Z,3.53
2017-10-24T21:16:50.464Z,3.90
2017-10-24T21:19:16.744Z,3.47
2017-10-24T21:21:43.055Z,3.53
2017-10-24T21:24:09.367Z,4.00
2017-10-24T21:26:36.461Z,3.97
2017-10-24T21:29:02.800Z,3.20
2017-10-24T21:31:29.093Z,2.90
2017-10-24T21:33:55.401Z,3.13
2017-10-24T21:36:21.788Z,2.80
2017-10-24T21:38:48.379Z,2.87
2017-10-24T21:41:14.657Z,2.80
2017-10-24T21:43:40.920Z,2.03
2017-10-24T21:46:07.883Z,2.63
2017-10-24T21:48:34.180Z,2.17
2017-10-24T21:51:01.212Z,2.60
2017-10-24T21:53:27.514Z,2.40
2017-10-24T21:55:53.820Z,2.20
2017-10-24T21:58:20.172Z,2.08
2017-10-24T22:00:50.426Z,2.63
2017-10-24T22:03:16.706Z,2.15
2017-10-24T22:05:42.968Z,2.87
2017-10-24T22:08:09.269Z,2.78
2017-10-24T22:10:35.559Z,3.05
2017-10-24T22:13:02.643Z,2.33
2017-10-24T22:15:28.952Z,2.80
2017-10-24T22:17:55.578Z,2.58
2017-10-24T22:20:21.888Z,1.83
2017-10-24T22:22:48.900Z,1.90
2017-10-24T22:25:15.234Z,2.35
2017-10-24T22:27:41.531Z,2.17
2017-10-24T22:30:07.874Z,3.87
2017-10-24T22:32:34.167Z,4.15
2017-10-24T22:35:00.479Z,4.10
2017-10-24T22:37:27.558Z,3.05
2017-10-24T22:39:53.876Z,1.80
2017-10-24T22:42:20.194Z,2.00
2017-10-24T22:44:46.469Z,2.00
2017-10-24T22:47:17.069Z,2.40
2017-10-24T22:49:43.365Z,2.50
2017-10-24T22:52:10.423Z,2.87
2017-10-24T22:54:36.741Z,2.20
2017-10-24T22:57:03.835Z,2.78
2017-10-24T22:59:30.163Z,4.20
2017-10-24T23:01:56.476Z,5.62
2017-10-24T23:04:22.788Z,6.75
2017-10-24T23:06:49.081Z,8.70
2017-10-24T23:09:15.440Z,13.45
2017-10-24T23:11:41.746Z,7.93
2017-10-24T23:14:08.802Z,5.97
2017-10-24T23:16:35.841Z,7.57
2017-10-24T23:19:02.157Z,8.82
2017-10-24T23:21:28.750Z,8.60
2017-10-24T23:23:55.039Z,9.65
2017-10-24T23:26:22.076Z,6.30
2017-10-24T23:28:48.383Z,4.03
2017-10-24T23:31:14.687Z,2.33
2017-10-24T23:33:41.029Z,4.20
2017-10-24T23:36:07.314Z,27.98
2017-10-24T23:38:33.673Z,5.82
2017-10-24T23:40:59.982Z,3.90
2017-10-24T23:43:26.282Z,3.40
2017-10-24T23:45:53.384Z,3.95
2017-10-24T23:48:19.693Z,3.67
2017-10-24T23:50:46.272Z,3.55
2017-10-24T23:53:12.595Z,4.00
2017-10-24T23:55:38.879Z,2.53
2017-10-24T23:58:05.153Z,3.65
